Avila Beach, California
Current Conditions -  °F | °C
As of 3:56 AM on Saturday 25 Oct 2014 (Local Time) from KSBP Reporting Station
Clear Clear  
Wind Chill: 52°   Ceiling: Unl
Heat Index: 52°   Visibility: 10mi
Dew Point: 50°   Wind: 0mph
Humidity: 93%   Direction: NA
Pressure: 30.01"   Gusts: NA
Location:  35.18°N, 120.73°W
Report Text: KSBP 251056Z AUTO 00000KT 10SM CLR 11/10 A3001 RMK AO2 SLP161 T01110100
Loading
Personal Weather Stations






























Interactive Weather Map New forecast layout! Learn more

10-Day Weather Forecast

Advertisements
Track Severe Weather on mobile